Time;durP1;ratioP1;P1;durP2;ratioP2;P2;SDS_P1;SDS_P2;PMS_P1;PMS_P2;Temp;Humidity;BMP_temperature;BMP_pressure;BME280_temperature;BME280_humidity;BME280_pressure;Samples;Min_cycle;Max_cycle;Signal;HPM_P1;HPM_P2
2023/12/09 00:01:42;;;;;;;51.75;14.05;;;;;;;;;;5103571;28;20055;-82
2023/12/09 00:04:09;;;;;;;45.27;13.13;;;;;;;;;;5100995;28;20044;-80
2023/12/09 00:06:35;;;;;;;49.83;13.00;;;;;;;;;;5085046;28;20040;-81
2023/12/09 00:09:02;;;;;;;49.80;12.25;;;;;;;;;;5083995;28;20464;-79
2023/12/09 00:11:28;;;;;;;42.90;13.05;;;;;;;;;;5102696;28;20048;-81
2023/12/09 00:13:54;;;;;;;45.33;12.65;;;;;;;;;;5101747;28;20055;-81
2023/12/09 00:16:20;;;;;;;38.90;13.00;;;;;;;;;;5102630;28;20114;-80
2023/12/09 00:18:46;;;;;;;45.53;12.88;;;;;;;;;;5100389;28;20040;-81
2023/12/09 00:21:12;;;;;;;44.85;13.43;;;;;;;;;;5107960;28;20097;-80
2023/12/09 00:23:39;;;;;;;42.28;13.07;;;;;;;;;;5094583;28;20104;-80
2023/12/09 00:26:05;;;;;;;42.30;13.23;;;;;;;;;;5091665;28;20075;-75
2023/12/09 00:28:31;;;;;;;48.45;13.13;;;;;;;;;;5099857;28;20285;-81
2023/12/09 00:30:57;;;;;;;36.35;12.32;;;;;;;;;;5098671;28;20040;-81
2023/12/09 00:33:23;;;;;;;47.17;12.63;;;;;;;;;;5102018;28;20047;-81
2023/12/09 00:35:49;;;;;;;41.78;11.57;;;;;;;;;;5104177;28;20047;-82
2023/12/09 00:38:16;;;;;;;45.25;12.32;;;;;;;;;;5099831;28;20071;-82
2023/12/09 00:40:42;;;;;;;36.13;11.95;;;;;;;;;;5102017;28;20048;-82
2023/12/09 00:43:08;;;;;;;38.10;13.05;;;;;;;;;;5099014;28;20040;-76
2023/12/09 00:45:34;;;;;;;35.95;12.48;;;;;;;;;;5102707;28;20044;-80
2023/12/09 00:48:00;;;;;;;49.40;13.15;;;;;;;;;;5100466;28;20051;-81
2023/12/09 00:50:26;;;;;;;38.13;12.13;;;;;;;;;;5101197;28;20518;-82
2023/12/09 00:52:52;;;;;;;36.53;11.63;;;;;;;;;;5099810;28;20080;-81
2023/12/09 00:55:18;;;;;;;38.72;11.93;;;;;;;;;;5098967;28;20087;-83
2023/12/09 00:57:44;;;;;;;35.42;11.73;;;;;;;;;;5099058;28;20098;-83
2023/12/09 01:00:11;;;;;;;37.28;12.15;;;;;;;;;;5131833;27;20079;-76
2023/12/09 01:02:40;;;;;;;49.83;12.48;;;;;;;;;;5133236;27;20043;-80
2023/12/09 01:05:06;;;;;;;35.67;11.77;;;;;;;;;;5097717;28;20112;-81
2023/12/09 01:07:32;;;;;;;47.05;12.65;;;;;;;;;;5099940;28;20381;-82
2023/12/09 01:09:58;;;;;;;39.20;12.38;;;;;;;;;;5100681;28;20048;-81
2023/12/09 01:12:24;;;;;;;43.10;12.27;;;;;;;;;;5136945;27;20084;-82
2023/12/09 01:14:50;;;;;;;49.15;11.88;;;;;;;;;;5104273;28;20047;-83
2023/12/09 01:17:16;;;;;;;36.78;12.02;;;;;;;;;;5097405;28;20076;-81
2023/12/09 01:19:43;;;;;;;42.58;12.85;;;;;;;;;;5099468;28;20520;-82
2023/12/09 01:22:09;;;;;;;39.17;12.00;;;;;;;;;;5098031;28;20087;-80
2023/12/09 01:24:35;;;;;;;44.63;14.17;;;;;;;;;;5131921;28;20047;-81
2023/12/09 01:27:01;;;;;;;39.10;11.73;;;;;;;;;;5103141;28;20043;-79
2023/12/09 01:29:27;;;;;;;37.25;12.07;;;;;;;;;;5103780;28;20105;-82
2023/12/09 01:31:53;;;;;;;38.08;12.32;;;;;;;;;;5088297;28;20040;-81
2023/12/09 01:34:20;;;;;;;38.45;12.38;;;;;;;;;;5108902;28;20070;-81
2023/12/09 01:36:46;;;;;;;48.35;11.82;;;;;;;;;;5109679;28;20048;-81
2023/12/09 01:39:12;;;;;;;40.58;11.85;;;;;;;;;;5105415;28;20055;-83
2023/12/09 01:41:38;;;;;;;35.03;12.27;;;;;;;;;;5097621;28;20044;-82
2023/12/09 01:44:04;;;;;;;33.22;10.70;;;;;;;;;;5098714;28;20096;-81
2023/12/09 01:46:31;;;;;;;39.22;11.77;;;;;;;;;;5081263;28;20043;-82
2023/12/09 01:48:57;;;;;;;34.33;10.50;;;;;;;;;;5098574;28;20066;-81
2023/12/09 01:51:24;;;;;;;40.35;11.10;;;;;;;;;;5098537;28;20046;-82
2023/12/09 01:53:50;;;;;;;40.67;12.43;;;;;;;;;;5100083;28;20082;-81
2023/12/09 01:56:18;;;;;;;39.22;11.57;;;;;;;;;;5098006;28;20198;-81
2023/12/09 01:58:44;;;;;;;40.58;12.63;;;;;;;;;;5095975;28;20048;-82
2023/12/09 02:01:10;;;;;;;47.95;12.63;;;;;;;;;;5096902;28;20051;-82
2023/12/09 02:03:37;;;;;;;39.80;11.65;;;;;;;;;;5096255;28;20048;-78
2023/12/09 02:06:03;;;;;;;37.75;11.90;;;;;;;;;;5099035;28;20051;-82
2023/12/09 02:08:29;;;;;;;37.40;10.63;;;;;;;;;;5104805;28;20047;-80
2023/12/09 02:11:14;;;;;;;40.60;10.63;;;;;;;;;;5101107;28;20079;-82
2023/12/09 02:14:04;;;;;;;39.67;11.00;;;;;;;;;;5099523;28;20051;-83
2023/12/09 02:16:50;;;;;;;37.88;11.30;;;;;;;;;;5094825;28;20379;-82
2023/12/09 02:19:17;;;;;;;37.58;11.98;;;;;;;;;;5095796;28;20456;-84
2023/12/09 02:21:58;;;;;;;39.10;11.07;;;;;;;;;;5102336;28;20441;-80
2023/12/09 02:24:25;;;;;;;34.75;10.43;;;;;;;;;;5111061;28;20044;-79
2023/12/09 02:26:52;;;;;;;37.35;10.35;;;;;;;;;;5093510;28;20044;-80
2023/12/09 02:29:18;;;;;;;32.47;11.20;;;;;;;;;;5106282;28;20135;-82
2023/12/09 02:31:46;;;;;;;32.55;10.85;;;;;;;;;;5082328;28;20040;-82
2023/12/09 02:34:11;;;;;;;;;;;;;;;;;;5100647;28;20099;-82
2023/12/09 02:36:39;;;;;;;42.33;10.52;;;;;;;;;;5099010;28;19920;-81
2023/12/09 02:39:07;;;;;;;41.33;9.70;;;;;;;;;;5082947;28;20097;-83
2023/12/09 02:41:33;;;;;;;34.92;10.43;;;;;;;;;;5099757;28;20097;-84
2023/12/09 02:43:59;;;;;;;41.57;11.17;;;;;;;;;;5097764;28;20050;-79
2023/12/09 02:46:26;;;;;;;35.08;10.30;;;;;;;;;;5100193;28;20416;-79
2023/12/09 02:48:52;;;;;;;35.33;9.80;;;;;;;;;;5083989;28;20515;-81
2023/12/09 02:51:19;;;;;;;34.70;10.90;;;;;;;;;;5100871;28;20052;-82
2023/12/09 02:53:45;;;;;;;35.95;10.05;;;;;;;;;;5097500;28;20553;-80
2023/12/09 02:56:11;;;;;;;32.05;10.15;;;;;;;;;;5101670;28;20052;-82
2023/12/09 02:58:37;;;;;;;40.00;10.20;;;;;;;;;;5102531;28;20446;-83
2023/12/09 03:01:04;;;;;;;34.45;10.32;;;;;;;;;;5099103;28;20103;-83
2023/12/09 03:03:30;;;;;;;37.40;10.00;;;;;;;;;;5098872;28;20048;-78
2023/12/09 03:05:56;;;;;;;34.28;10.02;;;;;;;;;;5099970;28;20040;-81
2023/12/09 03:08:22;;;;;;;39.47;10.20;;;;;;;;;;5099645;28;20462;-83
2023/12/09 03:10:48;;;;;;;32.65;9.75;;;;;;;;;;5065052;28;20444;-79
2023/12/09 03:13:14;;;;;;;41.85;10.70;;;;;;;;;;5101234;28;20075;-81
2023/12/09 03:15:40;;;;;;;34.80;8.98;;;;;;;;;;5097687;28;20051;-83
2023/12/09 03:18:06;;;;;;;35.25;10.77;;;;;;;;;;5100921;28;20117;-81
2023/12/09 03:20:32;;;;;;;33.53;10.13;;;;;;;;;;5100325;28;20048;-81
2023/12/09 03:22:58;;;;;;;27.48;8.82;;;;;;;;;;5144207;27;20047;-82
2023/12/09 03:25:25;;;;;;;34.40;9.27;;;;;;;;;;5108047;28;20104;-80
2023/12/09 03:27:51;;;;;;;34.13;9.05;;;;;;;;;;5100986;28;20131;-82
2023/12/09 03:30:17;;;;;;;33.03;8.85;;;;;;;;;;5098011;28;20055;-81
2023/12/09 03:32:43;;;;;;;29.35;8.90;;;;;;;;;;5096145;28;20387;-81
2023/12/09 03:35:12;;;;;;;38.22;10.00;;;;;;;;;;5097632;28;20048;-82
2023/12/09 03:37:38;;;;;;;30.40;8.57;;;;;;;;;;5101104;28;20419;-80
2023/12/09 03:40:04;;;;;;;38.28;9.15;;;;;;;;;;5098077;28;20048;-83
2023/12/09 03:42:30;;;;;;;39.33;9.10;;;;;;;;;;5082963;28;20048;-85
2023/12/09 03:44:56;;;;;;;33.05;8.43;;;;;;;;;;5097962;28;20048;-83
2023/12/09 03:47:23;;;;;;;32.30;9.88;;;;;;;;;;5099426;28;20044;-81
2023/12/09 03:49:49;;;;;;;39.47;11.50;;;;;;;;;;5099356;28;20094;-83
2023/12/09 03:52:15;;;;;;;35.67;8.40;;;;;;;;;;5100827;28;20150;-82
2023/12/09 03:54:41;;;;;;;30.05;8.32;;;;;;;;;;5098065;28;20412;-84
2023/12/09 03:57:09;;;;;;;29.98;9.30;;;;;;;;;;5099265;28;20044;-80
2023/12/09 03:59:39;;;;;;;37.50;9.70;;;;;;;;;;5098200;28;20519;-81
2023/12/09 04:02:05;;;;;;;30.27;8.43;;;;;;;;;;5097168;28;20100;-81
2023/12/09 04:04:31;;;;;;;31.65;8.30;;;;;;;;;;5098989;28;20430;-82
2023/12/09 04:06:57;;;;;;;29.95;9.52;;;;;;;;;;5099267;28;20047;-81
2023/12/09 04:09:24;;;;;;;34.28;9.05;;;;;;;;;;5099196;28;20480;-82
2023/12/09 04:11:50;;;;;;;35.92;8.60;;;;;;;;;;5097118;28;20201;-82
2023/12/09 04:14:16;;;;;;;30.52;9.18;;;;;;;;;;5101372;28;20048;-81
2023/12/09 04:16:43;;;;;;;28.40;8.15;;;;;;;;;;5082798;28;20059;-82
2023/12/09 04:19:09;;;;;;;32.10;7.82;;;;;;;;;;5099208;28;20044;-81
2023/12/09 04:21:35;;;;;;;29.13;8.03;;;;;;;;;;5099848;28;20048;-82
2023/12/09 04:24:01;;;;;;;31.90;8.02;;;;;;;;;;5104486;28;20046;-79
2023/12/09 04:26:27;;;;;;;32.60;8.32;;;;;;;;;;5107089;28;20086;-81
2023/12/09 04:28:53;;;;;;;34.08;7.95;;;;;;;;;;5106675;28;20043;-80
2023/12/09 04:31:19;;;;;;;39.22;8.02;;;;;;;;;;5098401;28;20044;-82
2023/12/09 04:33:45;;;;;;;36.00;9.50;;;;;;;;;;5080181;28;20055;-81
2023/12/09 04:36:11;;;;;;;29.65;7.85;;;;;;;;;;5100415;28;20050;-80
2023/12/09 04:38:38;;;;;;;30.17;8.73;;;;;;;;;;5108430;28;20099;-79
2023/12/09 04:41:04;;;;;;;33.03;9.15;;;;;;;;;;5107933;28;20040;-81
2023/12/09 04:43:30;;;;;;;31.77;8.88;;;;;;;;;;5103504;28;20383;-82
2023/12/09 04:45:56;;;;;;;33.40;9.40;;;;;;;;;;5099656;28;20047;-82
2023/12/09 04:48:22;;;;;;;32.92;9.27;;;;;;;;;;5095912;28;20044;-80
2023/12/09 04:50:48;;;;;;;31.90;8.38;;;;;;;;;;5078862;28;20549;-81
2023/12/09 04:53:14;;;;;;;31.30;8.05;;;;;;;;;;5097443;28;20056;-82
2023/12/09 04:55:41;;;;;;;32.05;9.57;;;;;;;;;;5096614;28;20157;-81
2023/12/09 04:58:07;;;;;;;33.67;9.60;;;;;;;;;;5078055;28;20044;-82
2023/12/09 05:00:33;;;;;;;32.85;8.55;;;;;;;;;;5096474;28;20320;-82
2023/12/09 05:02:59;;;;;;;25.65;8.10;;;;;;;;;;5096268;28;20048;-82
2023/12/09 05:05:25;;;;;;;31.00;8.40;;;;;;;;;;5096338;28;20083;-80
2023/12/09 05:07:51;;;;;;;33.77;8.70;;;;;;;;;;5098405;28;20044;-85
2023/12/09 05:10:18;;;;;;;33.80;8.65;;;;;;;;;;5097718;28;20044;-82
2023/12/09 05:12:44;;;;;;;29.02;8.60;;;;;;;;;;5094501;28;20555;-84
2023/12/09 05:15:10;;;;;;;32.08;8.77;;;;;;;;;;5096836;28;20050;-83
2023/12/09 05:17:37;;;;;;;25.65;8.45;;;;;;;;;;5097375;28;20500;-81
2023/12/09 05:20:04;;;;;;;31.27;8.38;;;;;;;;;;5129306;27;20079;-82
2023/12/09 05:22:30;;;;;;;36.33;8.68;;;;;;;;;;5096522;28;20052;-80
2023/12/09 05:24:56;;;;;;;26.38;7.95;;;;;;;;;;5095837;28;20048;-83
2023/12/09 05:27:23;;;;;;;29.45;8.75;;;;;;;;;;5096897;28;20036;-81
2023/12/09 05:29:49;;;;;;;34.08;7.95;;;;;;;;;;5095698;28;20047;-80
2023/12/09 05:32:16;;;;;;;33.85;8.98;;;;;;;;;;5098989;28;20163;-83
2023/12/09 05:34:42;;;;;;;35.42;9.77;;;;;;;;;;5098099;28;20048;-82
2023/12/09 05:37:08;;;;;;;28.42;7.90;;;;;;;;;;5094752;28;20382;-82
2023/12/09 05:39:35;;;;;;;26.75;8.82;;;;;;;;;;5079471;28;20056;-81
2023/12/09 05:42:01;;;;;;;21.73;7.53;;;;;;;;;;5096973;28;20123;-83
2023/12/09 05:44:27;;;;;;;24.05;7.57;;;;;;;;;;5097330;28;20048;-82
2023/12/09 05:46:53;;;;;;;30.98;8.25;;;;;;;;;;5098013;28;20506;-83
2023/12/09 05:49:19;;;;;;;28.05;9.23;;;;;;;;;;5098000;28;20043;-79
2023/12/09 05:51:46;;;;;;;35.17;8.77;;;;;;;;;;5102823;28;20404;-81
2023/12/09 05:54:12;;;;;;;31.15;7.97;;;;;;;;;;5100996;28;20508;-81
2023/12/09 05:56:40;;;;;;;31.30;7.30;;;;;;;;;;5100646;28;20074;-82
2023/12/09 05:59:06;;;;;;;30.35;8.45;;;;;;;;;;5098971;28;20058;-81
2023/12/09 06:01:33;;;;;;;20.13;8.07;;;;;;;;;;5100048;28;20075;-81
2023/12/09 06:03:59;;;;;;;24.75;7.35;;;;;;;;;;5099862;28;20047;-82
2023/12/09 06:06:25;;;;;;;27.88;8.43;;;;;;;;;;5101375;28;20127;-85
2023/12/09 06:08:51;;;;;;;23.70;7.25;;;;;;;;;;5101474;28;20047;-82
2023/12/09 06:11:17;;;;;;;29.95;7.32;;;;;;;;;;5101945;28;20087;-81
2023/12/09 06:13:44;;;;;;;27.48;7.65;;;;;;;;;;5103545;28;20048;-81
2023/12/09 06:16:10;;;;;;;27.13;7.30;;;;;;;;;;5101182;28;20055;-80
2023/12/09 06:18:36;;;;;;;30.35;7.90;;;;;;;;;;5104440;28;20059;-82
2023/12/09 06:21:02;;;;;;;23.83;7.30;;;;;;;;;;5100710;28;20535;-81
2023/12/09 06:23:28;;;;;;;27.02;7.10;;;;;;;;;;5103306;28;20044;-80
2023/12/09 06:25:54;;;;;;;25.40;8.35;;;;;;;;;;5091694;28;20062;-79
2023/12/09 06:28:20;;;;;;;28.35;6.57;;;;;;;;;;5112061;28;20040;-83
2023/12/09 06:30:46;;;;;;;26.67;6.57;;;;;;;;;;5106294;28;20143;-80
2023/12/09 06:33:12;;;;;;;26.13;7.10;;;;;;;;;;5102894;28;20044;-83
2023/12/09 06:35:38;;;;;;;30.92;6.80;;;;;;;;;;5100512;28;20044;-79
2023/12/09 06:38:04;;;;;;;19.80;6.15;;;;;;;;;;5100659;28;20117;-79
2023/12/09 06:40:30;;;;;;;26.38;7.07;;;;;;;;;;5100114;28;20070;-82
2023/12/09 06:42:57;;;;;;;31.70;7.18;;;;;;;;;;5100050;28;20043;-82
2023/12/09 06:45:23;;;;;;;30.13;6.43;;;;;;;;;;5098369;28;20127;-82
2023/12/09 06:47:53;;;;;;;21.77;5.82;;;;;;;;;;5084080;28;20082;-81
2023/12/09 06:50:19;;;;;;;17.77;5.57;;;;;;;;;;5100160;28;20052;-80
2023/12/09 06:52:46;;;;;;;24.08;6.35;;;;;;;;;;5099022;28;20052;-82
2023/12/09 06:55:12;;;;;;;23.40;5.70;;;;;;;;;;5100476;28;20055;-80
2023/12/09 06:57:38;;;;;;;23.35;6.25;;;;;;;;;;5099889;28;20063;-78
2023/12/09 07:00:07;;;;;;;26.35;5.50;;;;;;;;;;5082939;28;20048;-81
2023/12/09 07:02:33;;;;;;;21.65;5.40;;;;;;;;;;5102838;28;20051;-79
2023/12/09 07:04:59;;;;;;;20.33;6.78;;;;;;;;;;5102956;28;20051;-79
2023/12/09 07:07:25;;;;;;;23.13;5.65;;;;;;;;;;5103374;28;20108;-81
2023/12/09 07:09:52;;;;;;;19.95;6.38;;;;;;;;;;5101697;28;20051;-81
2023/12/09 07:12:18;;;;;;;23.10;5.72;;;;;;;;;;5098299;28;20040;-81
2023/12/09 07:14:44;;;;;;;26.02;5.40;;;;;;;;;;5098290;28;20058;-81
2023/12/09 07:17:11;;;;;;;22.15;4.95;;;;;;;;;;5097953;28;20047;-80
2023/12/09 07:19:38;;;;;;;28.05;5.80;;;;;;;;;;5079564;28;20051;-81
2023/12/09 07:22:04;;;;;;;27.23;5.90;;;;;;;;;;5098667;28;20051;-79
2023/12/09 07:24:30;;;;;;;17.92;4.95;;;;;;;;;;5097259;28;20048;-82
2023/12/09 07:26:56;;;;;;;21.40;4.30;;;;;;;;;;5097158;28;20048;-80
2023/12/09 07:29:22;;;;;;;19.10;4.25;;;;;;;;;;5097861;28;20044;-82
2023/12/09 07:31:48;;;;;;;25.80;4.72;;;;;;;;;;5097833;28;20051;-80
2023/12/09 07:34:16;;;;;;;17.70;4.80;;;;;;;;;;5080191;28;20050;-81
2023/12/09 07:36:43;;;;;;;18.92;5.28;;;;;;;;;;5099356;28;20051;-83
2023/12/09 07:39:09;;;;;;;17.27;4.22;;;;;;;;;;5080485;28;20055;-82
2023/12/09 07:41:36;;;;;;;20.27;3.90;;;;;;;;;;5098435;28;20040;-82
2023/12/09 07:44:02;;;;;;;;;;;;;;;;;;5100161;28;20051;-82
2023/12/09 07:46:28;;;;;;;18.77;4.18;;;;;;;;;;5082012;28;20310;-83
2023/12/09 07:48:54;;;;;;;20.15;4.32;;;;;;;;;;5099652;28;20173;-78
2023/12/09 07:51:21;;;;;;;18.10;4.17;;;;;;;;;;5079735;28;20048;-79
2023/12/09 07:53:47;;;;;;;19.17;4.03;;;;;;;;;;5098928;28;20372;-81
2023/12/09 07:56:13;;;;;;;24.33;4.27;;;;;;;;;;5080776;28;20466;-83
2023/12/09 07:58:39;;;;;;;16.85;4.00;;;;;;;;;;5099255;28;20545;-82
2023/12/09 08:01:05;;;;;;;17.08;4.78;;;;;;;;;;5099762;28;20389;-80
2023/12/09 08:03:32;;;;;;;13.70;4.40;;;;;;;;;;5097583;28;20040;-79
2023/12/09 08:05:58;;;;;;;17.90;3.85;;;;;;;;;;5078900;28;20434;-80
2023/12/09 08:08:25;;;;;;;21.33;4.35;;;;;;;;;;5097289;28;20074;-80
2023/12/09 08:10:51;;;;;;;21.52;3.55;;;;;;;;;;5097131;28;20047;-82
2023/12/09 08:13:20;;;;;;;18.67;3.80;;;;;;;;;;5099302;28;20070;-81
2023/12/09 08:15:46;;;;;;;20.05;4.10;;;;;;;;;;5095651;28;20044;-79
2023/12/09 08:18:12;;;;;;;16.42;4.07;;;;;;;;;;5097357;28;20048;-79
2023/12/09 08:20:38;;;;;;;19.85;3.70;;;;;;;;;;5087172;28;20107;-82
2023/12/09 08:23:04;;;;;;;15.83;3.60;;;;;;;;;;5098737;28;20048;-81
2023/12/09 08:25:30;;;;;;;9.98;3.10;;;;;;;;;;5103277;28;20111;-79
2023/12/09 08:27:57;;;;;;;17.17;3.38;;;;;;;;;;5087325;28;20043;-81
2023/12/09 08:30:23;;;;;;;23.83;3.25;;;;;;;;;;5103946;28;20059;-83
2023/12/09 08:32:49;;;;;;;24.98;2.97;;;;;;;;;;5101229;28;20084;-79
2023/12/09 08:35:16;;;;;;;13.45;2.78;;;;;;;;;;5098078;28;20101;-79
2023/12/09 08:37:42;;;;;;;17.15;3.63;;;;;;;;;;5096477;28;20048;-77
2023/12/09 08:40:12;;;;;;;15.95;3.72;;;;;;;;;;5078155;28;20046;-81
2023/12/09 08:42:42;;;;;;;22.85;4.43;;;;;;;;;;5095862;28;20084;-77
2023/12/09 08:45:09;;;;;;;11.52;2.25;;;;;;;;;;5093710;28;20048;-80
2023/12/09 08:47:35;;;;;;;;;;;;;;;;;;5094163;28;20054;-78
2023/12/09 08:50:03;;;;;;;15.20;2.60;;;;;;;;;;5093202;28;19920;-81
2023/12/09 08:52:30;;;;;;;18.83;2.20;;;;;;;;;;5094115;28;20138;-81
2023/12/09 08:54:56;;;;;;;20.95;2.95;;;;;;;;;;5094620;28;20059;-78
2023/12/09 08:57:22;;;;;;;11.27;2.60;;;;;;;;;;5095319;28;20040;-80
2023/12/09 08:59:49;;;;;;;13.30;2.70;;;;;;;;;;5094774;28;20048;-79
2023/12/09 09:02:15;;;;;;;10.93;2.55;;;;;;;;;;5093693;28;20052;-79
2023/12/09 09:04:41;;;;;;;15.18;2.97;;;;;;;;;;5094902;28;20488;-83
2023/12/09 09:07:07;;;;;;;17.98;2.85;;;;;;;;;;5094495;28;20052;-81
2023/12/09 09:09:33;;;;;;;15.02;2.58;;;;;;;;;;5076805;28;20136;-80
2023/12/09 09:11:59;;;;;;;13.95;2.45;;;;;;;;;;5094774;28;20488;-78
2023/12/09 09:14:25;;;;;;;18.83;2.10;;;;;;;;;;5077306;28;20056;-80
2023/12/09 09:16:52;;;;;;;11.10;2.08;;;;;;;;;;5094686;28;20075;-79
2023/12/09 09:19:18;;;;;;;20.08;2.40;;;;;;;;;;5093965;28;20126;-79
2023/12/09 09:21:44;;;;;;;14.50;2.30;;;;;;;;;;5094465;28;20108;-79
2023/12/09 09:24:10;;;;;;;10.65;2.22;;;;;;;;;;5094321;28;20039;-77
2023/12/09 09:26:36;;;;;;;13.32;2.30;;;;;;;;;;5095067;28;20044;-80
2023/12/09 09:29:02;;;;;;;13.27;1.92;;;;;;;;;;5098303;28;20200;-77
2023/12/09 09:31:28;;;;;;;12.52;2.40;;;;;;;;;;5098154;28;20052;-76
2023/12/09 09:33:54;;;;;;;12.90;1.55;;;;;;;;;;5098734;28;20050;-77
2023/12/09 09:36:21;;;;;;;14.55;2.13;;;;;;;;;;5080894;28;20353;-77
2023/12/09 09:38:47;;;;;;;15.27;1.85;;;;;;;;;;5097851;28;20044;-79
2023/12/09 09:41:23;;;;;;;17.17;2.35;;;;;;;;;;5098253;28;20063;-77
2023/12/09 09:43:56;;;;;;;13.70;1.92;;;;;;;;;;5096757;28;20051;-79
2023/12/09 09:46:22;;;;;;;13.48;1.92;;;;;;;;;;5098016;28;20040;-80
2023/12/09 09:48:51;;;;;;;13.82;2.53;;;;;;;;;;5097136;28;20040;-81
2023/12/09 09:51:20;;;;;;;9.40;1.48;;;;;;;;;;5098112;28;20131;-80
2023/12/09 09:53:50;;;;;;;7.72;1.30;;;;;;;;;;5097821;28;20056;-76
2023/12/09 09:56:18;;;;;;;10.43;1.55;;;;;;;;;;5097886;28;20040;-78
2023/12/09 09:58:44;;;;;;;13.80;1.73;;;;;;;;;;5098373;28;20380;-81
2023/12/09 10:01:11;;;;;;;10.07;1.45;;;;;;;;;;5096621;28;20404;-80
2023/12/09 10:03:37;;;;;;;14.07;1.90;;;;;;;;;;5096394;28;20071;-78
2023/12/09 10:06:04;;;;;;;11.43;1.52;;;;;;;;;;5097421;28;20036;-81
2023/12/09 10:08:30;;;;;;;14.68;1.85;;;;;;;;;;5097647;28;20055;-82
2023/12/09 10:10:57;;;;;;;8.03;1.37;;;;;;;;;;5079378;28;20089;-80
2023/12/09 10:13:23;;;;;;;10.57;1.52;;;;;;;;;;5096141;28;20294;-77
2023/12/09 10:15:49;;;;;;;11.48;1.75;;;;;;;;;;5097351;28;20039;-77
2023/12/09 10:18:15;;;;;;;10.73;1.50;;;;;;;;;;5096367;28;20048;-81
2023/12/09 10:20:43;;;;;;;11.25;1.90;;;;;;;;;;5097435;28;20412;-76
2023/12/09 10:23:09;;;;;;;11.25;1.60;;;;;;;;;;5097518;28;20509;-77
2023/12/09 10:25:35;;;;;;;12.25;1.90;;;;;;;;;;5099106;28;20088;-78
2023/12/09 10:28:02;;;;;;;13.60;1.63;;;;;;;;;;5099821;28;20055;-78
2023/12/09 10:30:28;;;;;;;8.05;1.90;;;;;;;;;;5100950;28;20051;-77
2023/12/09 10:32:54;;;;;;;9.73;1.42;;;;;;;;;;5080796;28;20177;-79
2023/12/09 10:35:20;;;;;;;9.20;1.50;;;;;;;;;;5100091;28;20438;-78
2023/12/09 10:37:49;;;;;;;9.95;2.17;;;;;;;;;;5086921;28;20056;-80
2023/12/09 10:40:15;;;;;;;11.13;1.80;;;;;;;;;;5100377;28;20074;-78
2023/12/09 10:42:41;;;;;;;9.88;1.92;;;;;;;;;;5096638;28;20054;-78
2023/12/09 10:45:08;;;;;;;11.50;2.20;;;;;;;;;;5096762;28;20373;-78
2023/12/09 10:47:34;;;;;;;9.55;2.00;;;;;;;;;;5096822;28;20040;-81
2023/12/09 10:50:02;;;;;;;12.27;2.53;;;;;;;;;;5095405;28;20514;-75
2023/12/09 10:52:29;;;;;;;11.55;2.80;;;;;;;;;;5095674;28;20312;-80
2023/12/09 10:54:55;;;;;;;7.72;2.13;;;;;;;;;;5095189;28;20116;-78
2023/12/09 10:57:23;;;;;;;15.13;2.90;;;;;;;;;;5096517;28;20062;-78
2023/12/09 10:59:49;;;;;;;15.15;4.50;;;;;;;;;;5097037;28;20044;-79
2023/12/09 11:02:16;;;;;;;11.60;3.17;;;;;;;;;;5096301;28;20058;-77
2023/12/09 11:04:43;;;;;;;13.10;3.22;;;;;;;;;;5096158;28;20071;-80
2023/12/09 11:07:09;;;;;;;14.18;2.20;;;;;;;;;;5095361;28;20498;-76
2023/12/09 11:09:35;;;;;;;10.25;1.85;;;;;;;;;;5095325;28;20056;-80
2023/12/09 11:12:01;;;;;;;10.90;1.63;;;;;;;;;;5095424;28;20121;-76
2023/12/09 11:14:28;;;;;;;9.48;2.03;;;;;;;;;;5096210;28;20131;-77
2023/12/09 11:16:56;;;;;;;11.93;2.00;;;;;;;;;;5096314;28;20040;-76
2023/12/09 11:19:23;;;;;;;12.77;3.47;;;;;;;;;;5096341;28;20048;-75
2023/12/09 11:21:50;;;;;;;13.48;2.28;;;;;;;;;;5096466;28;20087;-81
2023/12/09 11:24:17;;;;;;;15.88;2.08;;;;;;;;;;5094794;28;20052;-75
2023/12/09 11:26:48;;;;;;;7.78;1.90;;;;;;;;;;5078219;28;20036;-77
2023/12/09 11:29:15;;;;;;;10.13;1.98;;;;;;;;;;5096814;28;20047;-79
2023/12/09 11:31:51;;;;;;;10.27;1.70;;;;;;;;;;5096824;28;20108;-76
2023/12/09 11:34:18;;;;;;;10.25;2.03;;;;;;;;;;5128712;27;20060;-75
2023/12/09 11:36:44;;;;;;;;;;;;;;;;;;5078397;28;20189;-77
2023/12/09 11:39:17;;;;;;;15.63;3.47;;;;;;;;;;5094524;28;20381;-77
2023/12/09 11:41:44;;;;;;;8.27;2.10;;;;;;;;;;5095874;28;20115;-75
2023/12/09 11:44:11;;;;;;;10.50;2.78;;;;;;;;;;5077963;28;20050;-77
2023/12/09 11:46:37;;;;;;;10.32;2.30;;;;;;;;;;5098453;28;20054;-74
2023/12/09 11:49:03;;;;;;;5.95;1.20;;;;;;;;;;5099205;28;20091;-78
2023/12/09 11:51:30;;;;;;;12.55;1.70;;;;;;;;;;5095534;28;20135;-79
2023/12/09 11:53:57;;;;;;;10.65;2.03;;;;;;;;;;5094602;28;20106;-79
2023/12/09 11:56:24;;;;;;;7.38;2.03;;;;;;;;;;5095352;28;20050;-77
2023/12/09 11:58:50;;;;;;;11.80;1.33;;;;;;;;;;5095950;28;20044;-77
2023/12/09 12:01:17;;;;;;;9.55;1.73;;;;;;;;;;5077175;28;20294;-78
2023/12/09 12:03:43;;;;;;;;;;;;;;;;;;5094555;28;20048;-79
2023/12/09 12:06:10;;;;;;;11.83;1.60;;;;;;;;;;5076927;28;20382;-76
2023/12/09 12:08:36;;;;;;;8.70;1.27;;;;;;;;;;5094991;28;20286;-79
2023/12/09 12:11:03;;;;;;;10.52;1.38;;;;;;;;;;5095011;28;20625;-76
2023/12/09 12:13:30;;;;;;;7.78;1.70;;;;;;;;;;5093753;28;20381;-77
2023/12/09 12:15:56;;;;;;;10.35;1.50;;;;;;;;;;5093825;28;20079;-78
2023/12/09 12:18:26;;;;;;;9.43;2.00;;;;;;;;;;5094879;28;20040;-76
2023/12/09 12:20:52;;;;;;;16.95;3.08;;;;;;;;;;5095059;28;20318;-78
2023/12/09 12:23:18;;;;;;;12.25;2.90;;;;;;;;;;5093555;28;20168;-77
2023/12/09 12:25:44;;;;;;;8.95;1.45;;;;;;;;;;5096020;28;20047;-76
2023/12/09 12:28:10;;;;;;;10.40;2.00;;;;;;;;;;5095872;28;20048;-74
2023/12/09 12:30:36;;;;;;;10.43;1.35;;;;;;;;;;5097312;28;20083;-74
2023/12/09 12:33:06;;;;;;;10.57;1.73;;;;;;;;;;5095443;28;20387;-74
2023/12/09 12:35:32;;;;;;;10.85;1.20;;;;;;;;;;5093547;28;20055;-78
2023/12/09 12:37:58;;;;;;;8.90;1.75;;;;;;;;;;5092784;28;20132;-76
2023/12/09 12:40:26;;;;;;;9.65;2.58;;;;;;;;;;5092990;28;20052;-77
2023/12/09 12:42:53;;;;;;;10.13;2.65;;;;;;;;;;5093109;28;20089;-77
2023/12/09 12:45:23;;;;;;;12.32;1.65;;;;;;;;;;5060213;28;20052;-78
2023/12/09 12:47:50;;;;;;;6.68;1.30;;;;;;;;;;5096783;28;20063;-80
2023/12/09 12:50:17;;;;;;;10.38;1.70;;;;;;;;;;5080890;28;20051;-71
2023/12/09 12:52:44;;;;;;;12.02;1.58;;;;;;;;;;5095221;28;20050;-85
2023/12/09 12:55:14;;;;;;;8.23;1.17;;;;;;;;;;5096374;28;20052;-84
2023/12/09 12:57:41;;;;;;;10.00;1.40;;;;;;;;;;5099685;28;20048;-76
2023/12/09 13:00:07;;;;;;;4.57;1.20;;;;;;;;;;5078324;28;20048;-77
2023/12/09 13:02:34;;;;;;;5.43;1.33;;;;;;;;;;5095220;28;20499;-78
2023/12/09 13:05:00;;;;;;;6.80;1.20;;;;;;;;;;5079060;28;20526;-77
2023/12/09 13:07:26;;;;;;;9.93;1.30;;;;;;;;;;5093860;28;20051;-76
2023/12/09 13:09:52;;;;;;;9.80;1.40;;;;;;;;;;5092663;28;20075;-77
2023/12/09 13:12:19;;;;;;;6.87;1.30;;;;;;;;;;5092797;28;20059;-76
2023/12/09 13:14:45;;;;;;;7.03;1.40;;;;;;;;;;5095537;28;20055;-81
2023/12/09 13:17:11;;;;;;;7.05;1.40;;;;;;;;;;5095539;28;20063;-83
2023/12/09 13:19:37;;;;;;;7.10;1.50;;;;;;;;;;5078283;28;20063;-77
2023/12/09 13:22:05;;;;;;;7.90;1.75;;;;;;;;;;5079609;28;20076;-80
2023/12/09 13:24:32;;;;;;;9.82;1.63;;;;;;;;;;5082346;28;20079;-79
2023/12/09 13:26:58;;;;;;;8.60;1.95;;;;;;;;;;5080246;28;20050;-82
2023/12/09 13:29:24;;;;;;;7.07;1.80;;;;;;;;;;5096782;28;20044;-80
2023/12/09 13:31:50;;;;;;;9.45;2.20;;;;;;;;;;5131261;28;20063;-78
2023/12/09 13:34:17;;;;;;;13.43;2.40;;;;;;;;;;5096419;28;20493;-84
2023/12/09 13:36:44;;;;;;;10.45;1.73;;;;;;;;;;5080830;28;20044;-79
2023/12/09 13:39:14;;;;;;;13.02;1.95;;;;;;;;;;5099891;28;20048;-83
2023/12/09 13:41:40;;;;;;;8.13;1.77;;;;;;;;;;5100900;28;20048;-82
2023/12/09 13:44:06;;;;;;;9.68;1.70;;;;;;;;;;5100246;28;20048;-82
2023/12/09 13:46:32;;;;;;;5.93;1.27;;;;;;;;;;5098650;28;20043;-78
2023/12/09 13:48:58;;;;;;;7.25;1.00;;;;;;;;;;5096867;28;20459;-78
2023/12/09 13:51:24;;;;;;;6.10;1.33;;;;;;;;;;5080396;28;20051;-84
2023/12/09 13:53:51;;;;;;;10.48;1.65;;;;;;;;;;5099889;28;20091;-85
2023/12/09 13:56:17;;;;;;;12.20;1.70;;;;;;;;;;5103499;28;20059;-80
2023/12/09 13:58:43;;;;;;;8.48;1.17;;;;;;;;;;5096277;28;20483;-77
2023/12/09 14:01:09;;;;;;;9.50;1.20;;;;;;;;;;5099401;28;20048;-82
2023/12/09 14:03:35;;;;;;;10.80;1.45;;;;;;;;;;5099264;28;20120;-75
2023/12/09 14:06:01;;;;;;;10.07;1.45;;;;;;;;;;5099525;28;20048;-77
2023/12/09 14:08:27;;;;;;;9.63;1.67;;;;;;;;;;5102551;28;20083;-81
2023/12/09 14:10:53;;;;;;;11.57;2.10;;;;;;;;;;5097739;28;20085;-82
2023/12/09 14:13:20;;;;;;;10.15;1.85;;;;;;;;;;5098863;28;20040;-80
2023/12/09 14:15:46;;;;;;;9.73;1.40;;;;;;;;;;5096788;28;20048;-81
2023/12/09 14:18:12;;;;;;;11.20;1.70;;;;;;;;;;5101867;28;20109;-75
2023/12/09 14:20:38;;;;;;;7.43;1.50;;;;;;;;;;5101518;28;20048;-82
2023/12/09 14:23:04;;;;;;;10.70;1.95;;;;;;;;;;5066743;28;20094;-75
2023/12/09 14:25:31;;;;;;;8.55;1.35;;;;;;;;;;5102612;28;20368;-80
2023/12/09 14:27:57;;;;;;;18.90;2.65;;;;;;;;;;5089276;28;20044;-77